createdAt,value
2019-02-12T00:01:03.666Z,1.60
2019-02-12T00:03:31.217Z,1.30
2019-02-12T00:05:58.725Z,1.53
2019-02-12T00:08:26.209Z,2.10
2019-02-12T00:10:53.656Z,2.00
2019-02-12T00:13:32.023Z,1.60
2019-02-12T00:16:00.578Z,2.07
2019-02-12T00:18:28.169Z,1.97
2019-02-12T00:20:55.741Z,2.20
2019-02-12T00:23:23.061Z,2.10
2019-02-12T00:25:50.597Z,1.87
2019-02-12T00:28:18.268Z,1.73
2019-02-12T00:30:45.662Z,2.37
2019-02-12T00:33:13.002Z,2.13
2019-02-12T00:35:40.464Z,2.07
2019-02-12T00:38:07.756Z,2.40
2019-02-12T00:40:35.249Z,2.70
2019-02-12T00:43:02.887Z,2.17
2019-02-12T00:45:30.724Z,2.10
2019-02-12T00:47:58.267Z,1.40
2019-02-12T00:50:25.698Z,1.87
2019-02-12T00:52:53.282Z,1.20
2019-02-12T00:55:20.737Z,1.67
2019-02-12T00:57:48.122Z,1.83
2019-02-12T01:00:15.650Z,2.60
2019-02-12T01:02:43.185Z,1.77
2019-02-12T01:05:10.835Z,1.60
2019-02-12T01:07:38.412Z,2.27
2019-02-12T01:10:07.061Z,1.80
2019-02-12T01:12:34.762Z,1.57
2019-02-12T01:15:04.972Z,1.50
2019-02-12T01:17:32.674Z,1.43
2019-02-12T01:20:00.395Z,1.20
2019-02-12T01:22:27.976Z,1.23
2019-02-12T01:24:55.538Z,1.20
2019-02-12T01:27:23.019Z,1.10
2019-02-12T01:29:50.548Z,2.47
2019-02-12T01:32:18.047Z,3.10
2019-02-12T01:34:45.642Z,1.87
2019-02-12T01:37:13.052Z,1.30
2019-02-12T01:39:40.518Z,1.30
2019-02-12T01:42:07.912Z,1.10
2019-02-12T01:44:35.280Z,1.20
2019-02-12T01:47:02.651Z,2.50
2019-02-12T01:49:30.632Z,1.10
2019-02-12T01:51:58.065Z,0.90
2019-02-12T01:54:25.460Z,1.27
2019-02-12T01:56:53.091Z,1.07
2019-02-12T01:59:20.682Z,1.40
2019-02-12T02:01:48.137Z,1.73
2019-02-12T02:04:15.594Z,1.57
2019-02-12T02:06:43.201Z,1.07
2019-02-12T02:09:10.968Z,1.00
2019-02-12T02:11:39.002Z,1.53
2019-02-12T02:14:06.686Z,1.23
2019-02-12T02:16:34.215Z,0.90
2019-02-12T02:19:01.600Z,0.90
2019-02-12T02:21:29.056Z,0.90
2019-02-12T02:23:56.524Z,1.00
2019-02-12T02:26:24.019Z,1.00
2019-02-12T02:28:51.590Z,1.80
2019-02-12T02:31:19.442Z,1.40
2019-02-12T02:33:46.881Z,0.80
2019-02-12T02:36:14.284Z,1.20
2019-02-12T02:38:41.750Z,1.17
2019-02-12T02:41:09.329Z,0.90
2019-02-12T02:43:36.758Z,1.20
2019-02-12T02:46:04.173Z,1.10
2019-02-12T02:48:31.854Z,1.30
2019-02-12T02:50:59.307Z,1.30
2019-02-12T02:53:26.774Z,1.13
2019-02-12T02:55:54.317Z,1.50
2019-02-12T02:58:21.762Z,1.40
2019-02-12T03:00:49.278Z,0.93
2019-02-12T03:03:16.831Z,1.73
2019-02-12T03:05:45.342Z,1.10
2019-02-12T03:08:14.028Z,1.03
2019-02-12T03:10:41.578Z,1.10
2019-02-12T03:13:09.054Z,1.40
2019-02-12T03:15:36.633Z,1.50
2019-02-12T03:18:04.184Z,1.27
2019-02-12T03:20:31.635Z,1.60
2019-02-12T03:22:59.152Z,1.23
2019-02-12T03:25:26.665Z,1.10
2019-02-12T03:27:54.191Z,1.00
2019-02-12T03:30:21.647Z,1.00
2019-02-12T03:32:49.154Z,1.10
2019-02-12T03:35:16.704Z,1.40
2019-02-12T03:37:44.239Z,0.80
2019-02-12T03:40:11.747Z,1.77
2019-02-12T03:42:40.347Z,1.50
2019-02-12T03:45:08.806Z,1.30
2019-02-12T03:47:36.249Z,0.90
2019-02-12T03:50:04.228Z,0.80
2019-02-12T03:52:31.796Z,1.30
2019-02-12T03:54:59.205Z,1.07
2019-02-12T03:57:26.633Z,1.27
2019-02-12T03:59:54.156Z,1.10
2019-02-12T04:02:21.642Z,1.07
2019-02-12T04:04:49.360Z,0.80
2019-02-12T04:07:16.678Z,1.10
2019-02-12T04:09:44.294Z,1.40
2019-02-12T04:12:11.810Z,1.60
2019-02-12T04:14:39.411Z,1.47
2019-02-12T04:17:06.888Z,1.60
2019-02-12T04:19:34.395Z,1.60
2019-02-12T04:22:01.786Z,1.30
2019-02-12T04:24:30.286Z,2.10
2019-02-12T04:26:57.950Z,2.27
2019-02-12T04:29:25.243Z,1.27
2019-02-12T04:31:52.746Z,2.30
2019-02-12T04:34:20.261Z,1.13
2019-02-12T04:36:48.035Z,2.30
2019-02-12T04:39:15.502Z,1.83
2019-02-12T04:41:43.031Z,1.83
2019-02-12T04:44:10.426Z,1.50
2019-02-12T04:46:37.793Z,1.57
2019-02-12T04:49:05.394Z,1.90
2019-02-12T04:51:33.067Z,1.53
2019-02-12T04:54:00.644Z,1.20
2019-02-12T04:56:28.189Z,2.00
2019-02-12T04:58:55.580Z,1.70
2019-02-12T05:01:22.984Z,2.33
2019-02-12T05:03:50.538Z,1.60
2019-02-12T05:06:18.154Z,1.53
2019-02-12T05:09:14.654Z,1.50
2019-02-12T05:11:50.596Z,3.20
2019-02-12T05:14:18.700Z,1.50
2019-02-12T05:16:46.269Z,1.37
2019-02-12T05:19:13.844Z,1.50
2019-02-12T05:21:41.275Z,0.90
2019-02-12T05:24:08.745Z,0.97
2019-02-12T05:26:36.182Z,0.90
2019-02-12T05:29:03.693Z,1.23
2019-02-12T05:31:31.362Z,0.90
2019-02-12T05:33:58.966Z,1.17
2019-02-12T05:36:26.571Z,0.83
2019-02-12T05:38:54.032Z,1.50
2019-02-12T05:41:21.894Z,1.40
2019-02-12T05:43:49.390Z,1.75
2019-02-12T05:46:16.985Z,1.50
2019-02-12T05:48:44.423Z,2.30
2019-02-12T05:51:11.947Z,1.73
2019-02-12T05:53:39.483Z,2.20
2019-02-12T05:56:07.022Z,2.37
2019-02-12T05:58:34.578Z,2.60
2019-02-12T06:01:02.198Z,2.10
2019-02-12T06:03:29.910Z,1.90
2019-02-12T06:05:57.415Z,2.77
2019-02-12T06:08:24.931Z,2.73
2019-02-12T06:10:52.423Z,2.63
2019-02-12T06:13:20.002Z,1.90
2019-02-12T06:15:47.443Z,3.10
2019-02-12T06:18:14.974Z,2.07
2019-02-12T06:20:42.347Z,2.63
2019-02-12T06:23:09.755Z,1.80
2019-02-12T06:25:37.193Z,2.40
2019-02-12T06:28:04.671Z,1.80
2019-02-12T06:30:31.989Z,2.43
2019-02-12T06:33:07.170Z,3.60
2019-02-12T06:35:28.987Z,2.20
2019-02-12T06:37:56.374Z,2.50
2019-02-12T06:40:23.784Z,1.50
2019-02-12T06:42:51.460Z,2.03
2019-02-12T06:45:19.159Z,2.10
2019-02-12T06:47:47.798Z,3.53
2019-02-12T06:50:15.397Z,1.70
2019-02-12T06:52:42.746Z,1.30
2019-02-12T06:55:10.215Z,1.73
2019-02-12T06:57:37.802Z,2.00
2019-02-12T07:00:07.041Z,2.63
2019-02-12T07:03:08.697Z,1.40
2019-02-12T07:05:38.777Z,1.40
2019-02-12T07:08:31.863Z,1.60
2019-02-12T07:11:04.222Z,1.67
2019-02-12T07:13:40.215Z,1.40
2019-02-12T07:16:40.798Z,1.93
2019-02-12T07:20:00.754Z,1.57
2019-02-12T07:22:56.287Z,1.70
2019-02-12T07:25:51.616Z,3.23
2019-02-12T07:28:31.857Z,1.83
2019-02-12T07:31:40.615Z,1.70
2019-02-12T07:34:41.653Z,2.50
2019-02-12T07:37:37.454Z,2.40
2019-02-12T07:40:33.757Z,1.90
2019-02-12T07:43:39.972Z,1.90
2019-02-12T07:46:31.308Z,1.77
2019-02-12T07:49:40.372Z,2.42
2019-02-12T07:55:47.506Z,1.60
2019-02-12T07:59:02.835Z,1.30
2019-02-12T08:02:09.279Z,1.93
2019-02-12T08:05:13.463Z,1.60
2019-02-12T08:08:29.339Z,1.30
2019-02-12T08:11:04.868Z,1.93
2019-02-12T08:13:57.177Z,1.97
2019-02-12T08:17:18.696Z,2.70
2019-02-12T08:20:18.172Z,1.83
2019-02-12T08:23:17.215Z,3.60
2019-02-12T08:26:28.494Z,2.33
2019-02-12T08:29:23.892Z,2.63
2019-02-12T08:32:10.191Z,2.50
2019-02-12T08:35:02.024Z,2.60
2019-02-12T08:38:12.179Z,3.23
2019-02-12T08:41:27.857Z,2.70
2019-02-12T08:44:17.647Z,2.60
2019-02-12T08:47:25.243Z,2.63
2019-02-12T08:49:59.353Z,2.60
2019-02-12T08:52:55.232Z,3.53
2019-02-12T08:56:13.609Z,2.37
2019-02-12T08:58:53.877Z,3.60
2019-02-12T09:02:03.193Z,3.50
2019-02-12T09:04:42.582Z,2.43
2019-02-12T09:07:31.436Z,2.80
2019-02-12T09:11:02.261Z,2.30
2019-02-12T09:14:03.231Z,2.17
2019-02-12T09:17:14.970Z,1.97
2019-02-12T09:19:58.406Z,1.90
2019-02-12T09:23:04.288Z,2.40
2019-02-12T09:25:54.793Z,2.03
2019-02-12T09:28:34.503Z,2.13
2019-02-12T09:31:41.105Z,1.63
2019-02-12T09:34:39.170Z,2.80
2019-02-12T09:37:35.892Z,1.43
2019-02-12T09:40:35.829Z,1.83
2019-02-12T09:43:42.451Z,2.00
2019-02-12T09:46:33.251Z,2.67
2019-02-12T09:49:38.466Z,2.37
2019-02-12T09:52:42.040Z,2.03
2019-02-12T09:55:57.135Z,1.50
2019-02-12T09:59:03.371Z,1.40
2019-02-12T10:02:05.949Z,1.40
2019-02-12T10:05:09.913Z,1.53
2019-02-12T10:07:55.719Z,1.53
2019-02-12T10:10:42.314Z,2.20
2019-02-12T10:13:18.139Z,2.23
2019-02-12T10:16:21.329Z,2.30
2019-02-12T10:19:12.348Z,1.70
2019-02-12T10:22:25.286Z,1.67
2019-02-12T10:25:06.465Z,1.97
2019-02-12T10:28:27.636Z,2.43
2019-02-12T10:31:11.101Z,1.23
2019-02-12T10:33:38.786Z,1.87
2019-02-12T10:36:06.330Z,1.60
2019-02-12T10:38:33.870Z,2.07
2019-02-12T10:41:01.506Z,1.90
2019-02-12T10:43:29.127Z,2.57
2019-02-12T10:45:56.766Z,1.77
2019-02-12T10:48:24.312Z,1.93
2019-02-12T10:50:51.944Z,2.60
2019-02-12T10:53:19.618Z,1.90
2019-02-12T10:55:48.122Z,2.03
2019-02-12T10:58:16.007Z,3.00
2019-02-12T11:00:43.654Z,2.40
2019-02-12T11:03:11.383Z,2.97
2019-02-12T11:05:38.980Z,2.33
2019-02-12T11:08:06.582Z,2.20
2019-02-12T11:10:34.313Z,2.67
2019-02-12T11:13:02.013Z,1.80
2019-02-12T11:15:29.854Z,1.73
2019-02-12T11:17:57.482Z,2.33
2019-02-12T11:20:25.050Z,2.20
2019-02-12T11:22:52.648Z,3.00
2019-02-12T11:25:20.370Z,2.60
2019-02-12T11:27:47.881Z,2.40
2019-02-12T11:30:15.557Z,2.40
2019-02-12T11:32:43.130Z,1.80
2019-02-12T11:35:11.211Z,1.60
2019-02-12T11:37:39.055Z,2.10
2019-02-12T11:40:07.463Z,2.10
2019-02-12T11:42:35.130Z,2.43
2019-02-12T11:45:02.684Z,2.90
2019-02-12T11:47:31.555Z,2.90
2019-02-12T11:49:59.040Z,3.70
2019-02-12T11:52:26.656Z,2.90
2019-02-12T11:54:54.264Z,3.00
2019-02-12T11:57:22.049Z,3.50
2019-02-12T11:59:49.468Z,2.80
2019-02-12T12:02:18.945Z,3.07
2019-02-12T12:04:46.464Z,2.67
2019-02-12T12:07:14.215Z,2.83
2019-02-12T12:09:41.875Z,3.10
2019-02-12T12:12:09.538Z,3.53
2019-02-12T12:14:37.064Z,2.53
2019-02-12T12:17:04.613Z,3.30
2019-02-12T12:19:32.135Z,2.27
2019-02-12T12:22:00.518Z,3.63
2019-02-12T12:24:28.142Z,2.23
2019-02-12T12:26:55.662Z,2.80
2019-02-12T12:29:23.742Z,2.30
2019-02-12T12:31:51.450Z,3.13
2019-02-12T12:34:19.051Z,2.60
2019-02-12T12:36:46.721Z,2.37
2019-02-12T12:39:14.265Z,2.83
2019-02-12T12:41:42.838Z,3.20
2019-02-12T12:44:10.470Z,2.30
2019-02-12T12:46:37.970Z,3.00
2019-02-12T12:49:05.507Z,2.50
2019-02-12T12:51:32.951Z,2.30
2019-02-12T12:54:00.569Z,2.97
2019-02-12T12:56:28.051Z,3.10
2019-02-12T12:58:55.618Z,3.00
2019-02-12T13:01:24.184Z,2.80
2019-02-12T13:03:51.855Z,4.30
2019-02-12T13:06:19.511Z,3.57
2019-02-12T13:08:47.112Z,3.70
2019-02-12T13:11:14.623Z,4.20
2019-02-12T13:13:42.066Z,5.70
2019-02-12T13:16:09.571Z,3.63
2019-02-12T13:18:37.014Z,6.07
2019-02-12T13:21:04.710Z,5.90
2019-02-12T13:23:32.143Z,7.10
2019-02-12T13:25:59.607Z,5.40
2019-02-12T13:28:27.104Z,5.40
2019-02-12T13:30:55.883Z,5.53
2019-02-12T13:33:26.445Z,4.87
2019-02-12T13:35:53.963Z,5.07
2019-02-12T13:38:21.429Z,5.20
2019-02-12T13:40:49.069Z,4.50
2019-02-12T13:43:16.587Z,5.53
2019-02-12T13:45:43.978Z,5.43
2019-02-12T13:48:11.404Z,6.53
2019-02-12T13:50:38.838Z,5.03
2019-02-12T13:53:06.331Z,5.77
2019-02-12T13:55:33.866Z,5.33
2019-02-12T13:58:01.407Z,6.00
2019-02-12T14:00:28.959Z,8.30
2019-02-12T14:02:56.470Z,6.70
2019-02-12T14:05:24.755Z,6.50
2019-02-12T14:07:52.280Z,6.37
2019-02-12T14:10:19.734Z,6.80
2019-02-12T14:12:47.244Z,6.03
2019-02-12T14:15:14.704Z,6.80
2019-02-12T14:17:42.146Z,7.40
2019-02-12T14:20:11.133Z,6.30
2019-02-12T14:22:38.661Z,6.57
2019-02-12T14:25:06.639Z,5.97
2019-02-12T14:27:34.196Z,6.77
2019-02-12T14:30:01.672Z,5.90
2019-02-12T14:32:29.363Z,5.63
2019-02-12T14:34:59.150Z,6.70
2019-02-12T14:37:26.766Z,6.70
2019-02-12T14:39:54.263Z,5.83
2019-02-12T14:42:22.051Z,6.57
2019-02-12T14:44:49.524Z,6.20
2019-02-12T14:47:17.085Z,6.50
2019-02-12T14:49:44.859Z,6.10
2019-02-12T14:52:12.458Z,5.77
2019-02-12T14:54:40.062Z,6.17
2019-02-12T14:57:07.829Z,6.47
2019-02-12T14:59:35.387Z,6.50
2019-02-12T15:02:02.775Z,5.50
2019-02-12T15:04:30.406Z,6.40
2019-02-12T15:06:57.924Z,6.20
2019-02-12T15:09:25.472Z,7.00
2019-02-12T15:11:52.964Z,7.10
2019-02-12T15:14:20.294Z,6.93
2019-02-12T15:16:47.613Z,7.50
2019-02-12T15:19:15.113Z,7.00
2019-02-12T15:21:42.735Z,7.80
2019-02-12T15:24:10.336Z,7.30
2019-02-12T15:26:37.802Z,7.43
2019-02-12T15:29:05.111Z,8.23
2019-02-12T15:31:32.531Z,6.60
2019-02-12T15:34:00.075Z,7.10
2019-02-12T15:36:27.559Z,7.47
2019-02-12T15:38:54.886Z,7.67
2019-02-12T15:41:22.350Z,8.40
2019-02-12T15:43:49.779Z,8.60
2019-02-12T15:46:17.277Z,8.10
2019-02-12T15:48:44.606Z,8.97
2019-02-12T15:51:12.118Z,8.03
2019-02-12T15:53:39.563Z,8.07
2019-02-12T15:56:07.262Z,7.50
2019-02-12T15:58:34.736Z,7.37
2019-02-12T16:01:03.962Z,8.40
2019-02-12T16:03:31.535Z,8.83
2019-02-12T16:06:00.186Z,8.67
2019-02-12T16:08:28.583Z,8.07
2019-02-12T16:10:58.905Z,8.50
2019-02-12T16:13:26.461Z,9.03
2019-02-12T16:15:53.987Z,8.50
2019-02-12T16:18:22.925Z,8.60
2019-02-12T16:20:50.890Z,8.90
2019-02-12T16:23:18.403Z,9.43
2019-02-12T16:25:46.010Z,9.70
2019-02-12T16:28:13.508Z,9.50
2019-02-12T16:30:41.129Z,10.37
2019-02-12T16:33:08.805Z,11.77
2019-02-12T16:35:36.276Z,12.23
2019-02-12T16:38:03.996Z,11.90
2019-02-12T16:40:31.614Z,11.43
2019-02-12T16:42:59.218Z,13.70
2019-02-12T16:45:30.690Z,12.50
2019-02-12T16:48:00.242Z,12.30
2019-02-12T16:50:49.872Z,11.67
2019-02-12T16:53:20.266Z,11.97
2019-02-12T16:55:47.987Z,10.43
2019-02-12T16:58:18.305Z,10.80
2019-02-12T17:00:45.857Z,12.30
2019-02-12T17:03:13.547Z,12.57
2019-02-12T17:05:42.327Z,11.83
2019-02-12T17:08:09.879Z,11.80
2019-02-12T17:10:37.482Z,11.40
2019-02-12T17:13:05.098Z,12.93
2019-02-12T17:15:32.682Z,13.33
2019-02-12T17:18:00.178Z,13.80
2019-02-12T17:20:30.391Z,14.53
2019-02-12T17:22:57.791Z,13.53
2019-02-12T17:25:31.475Z,15.20
2019-02-12T17:27:58.975Z,14.57
2019-02-12T17:30:27.174Z,16.70
2019-02-12T17:32:54.598Z,15.00
2019-02-12T17:35:22.325Z,14.57
2019-02-12T17:37:49.956Z,16.00
2019-02-12T17:40:17.506Z,15.70
2019-02-12T17:42:45.078Z,17.47
2019-02-12T17:45:12.877Z,15.30
2019-02-12T17:47:40.466Z,17.90
2019-02-12T17:50:09.040Z,17.40
2019-02-12T17:52:36.529Z,17.53
2019-02-12T17:55:05.027Z,17.03
2019-02-12T17:57:33.504Z,16.60
2019-02-12T18:00:01.123Z,17.50
2019-02-12T18:02:28.605Z,18.80
2019-02-12T18:04:56.046Z,17.10
2019-02-12T18:07:25.442Z,17.10
2019-02-12T18:09:52.836Z,18.03
2019-02-12T18:12:20.274Z,16.47
2019-02-12T18:14:47.758Z,16.40
2019-02-12T18:17:15.221Z,17.07
2019-02-12T18:19:42.711Z,17.73
2019-02-12T18:22:10.252Z,18.57
2019-02-12T18:24:37.551Z,17.73
2019-02-12T18:27:05.044Z,18.23
2019-02-12T18:29:32.463Z,17.43
2019-02-12T18:32:00.085Z,15.87
2019-02-12T18:34:28.168Z,17.07
2019-02-12T18:36:55.588Z,16.73
2019-02-12T18:39:23.218Z,19.87
2019-02-12T18:41:50.787Z,17.53
2019-02-12T18:44:18.398Z,17.90
2019-02-12T18:46:45.963Z,17.03
2019-02-12T18:49:15.257Z,18.50
2019-02-12T18:51:42.752Z,19.92
2019-02-12T18:54:10.350Z,18.00
2019-02-12T18:56:41.675Z,18.13
2019-02-12T18:59:08.736Z,17.93
2019-02-12T19:01:36.032Z,17.80
2019-02-12T19:04:04.609Z,16.70
2019-02-12T19:06:32.134Z,17.20
2019-02-12T19:08:59.975Z,17.97
2019-02-12T19:11:28.623Z,16.77
2019-02-12T19:13:56.266Z,16.80
2019-02-12T19:16:23.794Z,17.17
2019-02-12T19:18:51.546Z,17.13
2019-02-12T19:21:19.094Z,17.07
2019-02-12T19:23:46.758Z,18.07
2019-02-12T19:26:14.565Z,17.73
2019-02-12T19:28:42.146Z,19.13
2019-02-12T19:31:09.907Z,17.87
2019-02-12T19:33:37.465Z,17.77
2019-02-12T19:36:04.975Z,18.77
2019-02-12T19:38:32.547Z,17.70
2019-02-12T19:41:00.066Z,18.30
2019-02-12T19:43:27.639Z,19.70
2019-02-12T19:45:55.059Z,19.60
2019-02-12T19:48:22.993Z,19.57
2019-02-12T19:50:50.675Z,18.63
2019-02-12T19:53:18.252Z,18.60
2019-02-12T19:55:45.845Z,21.17
2019-02-12T19:58:13.302Z,21.40
2019-02-12T20:00:40.827Z,20.10
2019-02-12T20:03:08.350Z,22.63
2019-02-12T20:05:36.042Z,24.27
2019-02-12T20:08:03.523Z,23.65
2019-02-12T20:10:31.278Z,21.43
2019-02-12T20:12:58.686Z,23.10
2019-02-12T20:15:45.726Z,21.23
2019-02-12T20:18:13.389Z,20.90
2019-02-12T20:20:40.955Z,21.90
2019-02-12T20:23:08.486Z,21.00
2019-02-12T20:25:35.982Z,22.47
2019-02-12T20:28:03.560Z,22.77
2019-02-12T20:30:31.427Z,21.83
2019-02-12T20:32:59.106Z,22.97
2019-02-12T20:35:26.873Z,24.17
2019-02-12T20:37:54.406Z,20.97
2019-02-12T20:40:21.985Z,22.60
2019-02-12T20:42:49.431Z,23.40
2019-02-12T20:45:17.262Z,23.40
2019-02-12T20:47:46.427Z,24.57
2019-02-12T20:50:14.021Z,23.87
2019-02-12T20:52:41.641Z,24.33
2019-02-12T20:55:09.699Z,25.93
2019-02-12T20:57:37.247Z,24.73
2019-02-12T21:00:07.219Z,25.07
2019-02-12T21:02:35.150Z,25.03
2019-02-12T21:05:03.051Z,24.10
2019-02-12T21:07:30.530Z,25.07
2019-02-12T21:09:57.981Z,24.50
2019-02-12T21:12:25.508Z,26.17
2019-02-12T21:14:53.135Z,26.07
2019-02-12T21:17:20.666Z,26.93
2019-02-12T21:19:48.157Z,26.30
2019-02-12T21:22:16.659Z,29.32
2019-02-12T21:24:44.194Z,27.73
2019-02-12T21:27:12.479Z,25.83
2019-02-12T21:29:40.959Z,26.00
2019-02-12T21:32:08.374Z,26.40
2019-02-12T21:34:35.790Z,27.27
2019-02-12T21:37:03.347Z,25.37
2019-02-12T21:39:31.128Z,25.80
2019-02-12T21:41:58.725Z,25.53
2019-02-12T21:44:26.189Z,27.53
2019-02-12T21:46:53.638Z,26.40
2019-02-12T21:49:21.290Z,26.30
2019-02-12T21:51:48.818Z,26.30
2019-02-12T21:54:16.483Z,27.10
2019-02-12T21:56:43.970Z,25.73
2019-02-12T21:59:11.471Z,27.57
2019-02-12T22:01:39.167Z,26.23
2019-02-12T22:04:06.744Z,27.77
2019-02-12T22:06:34.342Z,26.10
2019-02-12T22:09:02.243Z,26.07
2019-02-12T22:11:31.551Z,27.57
2019-02-12T22:13:59.132Z,24.63
2019-02-12T22:16:26.672Z,25.90
2019-02-12T22:18:54.162Z,25.67
2019-02-12T22:21:21.783Z,26.33
2019-02-12T22:23:49.383Z,26.47
2019-02-12T22:26:16.996Z,25.57
2019-02-12T22:28:44.602Z,25.70
2019-02-12T22:31:12.158Z,26.50
2019-02-12T22:33:42.163Z,26.10
2019-02-12T22:36:10.182Z,25.40
2019-02-12T22:38:37.694Z,26.93
2019-02-12T22:41:05.228Z,25.10
2019-02-12T22:43:32.646Z,31.45
2019-02-12T22:46:00.179Z,25.92
2019-02-12T22:48:27.793Z,25.93
2019-02-12T22:50:55.470Z,26.67
2019-02-12T22:53:23.043Z,26.70
2019-02-12T22:55:51.623Z,25.10
2019-02-12T22:58:19.063Z,26.60
2019-02-12T23:00:59.097Z,26.23
2019-02-12T23:03:28.469Z,26.60
2019-02-12T23:05:55.979Z,27.07
2019-02-12T23:08:24.724Z,25.60
2019-02-12T23:10:52.238Z,26.03
2019-02-12T23:13:20.983Z,25.07
2019-02-12T23:15:48.521Z,25.30
2019-02-12T23:18:15.991Z,25.57
2019-02-12T23:20:43.553Z,26.40
2019-02-12T23:23:11.302Z,24.80
2019-02-12T23:25:38.648Z,25.10
2019-02-12T23:28:06.151Z,25.80
2019-02-12T23:30:33.806Z,24.73
2019-02-12T23:33:01.380Z,25.30
2019-02-12T23:35:29.111Z,25.30
2019-02-12T23:37:56.656Z,25.17
2019-02-12T23:40:24.007Z,26.70
2019-02-12T23:42:51.561Z,27.13
2019-02-12T23:45:19.215Z,24.73
2019-02-12T23:47:46.718Z,25.87
2019-02-12T23:50:14.162Z,25.33
2019-02-12T23:52:41.792Z,27.40
2019-02-12T23:55:09.408Z,26.00
2019-02-12T23:57:36.852Z,24.60
